Terminal Aerodrome Forecast
Issued by NWS

Home | Current Version | Previous Version | Text Only | Print | Product List | Glossary On
Versions: 1 2 3 4 5 6 7 8 9 10 11 12 13 14 15 16
819
FTUS44 KCRP 272338
TAFLRD
TAF
KLRD 272338Z 2800/2824 18004KT P6SM SCT250
     FM280200 15010G15KT P6SM SCT250
     FM280900 14008KT P6SM BKN012
      TEMPO 2810/2813 6SM BR BKN008
     FM281500 17010G20KT P6SM SCT020 BKN250
     FM282100 20008KT P6SM BKN250=

USA.gov is the U.S. government's official web portal to all federal, state and local government web resources and services.